DNILDNMM

Guest
Details From DNIL - Ilorin
To DNMM - Lagos Murtala Muhammed
Flight Number -
Tags Generated
Created
Modified
Stats Distance 130 nm / 240 km
Max Altitude 0 ft / 0 m
Waypoints 2
Social Downloads 5
Likes 0
Share VATSIM

Download

Looking for another format? Having issues loading an existing format? Contact us
Advertisement - Login to hide

Notes

Generated

Route

DNIL DNMM

ID Type Via Altitude Latitude Longitude Leg Dist Tot Dist Heading (true) Name
O DNIL APT - 0 ft / 0 m 8.43097˚ 4.48331˚ - 0 nm - -
O DNMM APT - 0 ft / 0 m 6.59701˚ 3.32914˚ 129 nm 129 nm 212° / 212° -

Altitude Profile

Advertisement - Login to hide

DNIL

Details ICAO DNIL (ILR)
Name ILORIN
Region Nigeria
Timezone Africa/Lagos (UTC+1.0)
Stats Elevation 1,126 ft / 343 m (AMSL)
Location 8.440115° 4.493969°
Runways 1
Magnetic Variation 1.553° W

METAR

Not found

TAF

TAF DNIL 170930Z 1712/1818 22008KT CAVOK PROB30 TEMPO 1805/1809 5000 HZ NSC

Decode

Departure Runways

ID Width Length Bearing (true) Bearing (mag) Surface Threshold Offset Overrun Length
05 197 ft / 60 m 10,189 ft / 3,106 m 49.07° 50.62° Asphalt 0 ft / 0 m 397 ft / 121 m
23 197 ft / 60 m 10,189 ft / 3,106 m 229.07° 230.62° Asphalt 0 ft / 0 m 397 ft / 121 m

DNMM

Details ICAO DNMM (LOS)
Name Lagos Murtala Muhammed
Region Nigeria
Timezone Africa/Lagos (UTC+1.0)
Stats Elevation 135 ft / 41 m (AMSL)
Location 6.577380° 3.321347°
Runways 2
Magnetic Variation 2.224° W

METAR

DNMM 171400Z 18007KT 8000 BKN014 32/24 Q1010 NOSIG

Decode

TAF

TAF DNMM 170950Z 1712/1818 19008KT 8000 BKN014 BECMG 1715/1717 VRB02KT FEW011 TEMPO 1805/1808 5000 HZ

Decode

Destination Runways

ID Width Length Bearing (true) Bearing (mag) Surface Threshold Offset Overrun Length
18L 148 ft / 45 m 9,049 ft / 2,758 m 180.00° 182.22° Asphalt 300 ft / 91 m 0 ft / 0 m
18R 197 ft / 60 m 12,867 ft / 3,922 m 180.00° 182.22° Asphalt 600 ft / 183 m 0 ft / 0 m
36L 197 ft / 60 m 12,867 ft / 3,922 m 0.00° 2.22° Asphalt 600 ft / 183 m 0 ft / 0 m
36R 148 ft / 45 m 9,049 ft / 2,758 m 0.00° 2.22° Asphalt 300 ft / 91 m 0 ft / 0 m

Approach Navaids

Runway Type Ident Frequency Range Bearing (true) Bearing (mag) Slope Elevation
18L Localiser ILA 110.30 MHz 18 nm / 33 km 179.94° 182.17° - 92 ft / 28 m (AMSL)
18L Glidescope ILA 110.30 MHz 10 nm / 19 km 179.94° 182.17° 3.00° 177 ft / 54 m (AMSL)
18L DME ILA 108.10 MHz 18 nm / 33 km - - - 135 ft / 41 m (AMSL)
18R Localiser ILB 108.10 MHz 18 nm / 33 km 179.94° 182.17° - 56 ft / 17 m (AMSL)
18R Glidescope ILB 108.10 MHz 10 nm / 19 km 179.94° 182.17° 3.00° 105 ft / 32 m (AMSL)
18R DME ILB 109.30 MHz 18 nm / 33 km - - - 135 ft / 41 m (AMSL)

Popular Alternatives